ADDS TAF Board (Experimental) INFO Settings
IDs: Format: Expanded Condensed

KLAX - Los Angeles Intl, CA, US

Issued at 2322 UTC 31 Aug 2015
Updated at: 2347 UTC 31 Aug 2015
Time2253Z 01/00Z 01/01Z 01/02Z 01/03Z 01/04Z 01/05Z 01/06Z 01/07Z 01/08Z 01/09Z 01/10Z 01/11Z 01/12Z
Type OBS PRVL PRVL PRVL PRVL PRVL PRVL PRVL PRVL PRVL PRVL PRVL PRVL PRVL
VIS 10 >6 >6 >6 >6 >6 >6 >6 >6 >6 >6 >6 >6 >6
CIG -- -- -- -- -- -- -- 12 12 12 12 12 12 17
Cover CLR SKC SKC SKC SKC SKC SKC OVC OVC OVC OVC OVC OVC OVC
FltCat VFR VFR VFR VFR VFR VFR VFR MVFR MVFR MVFR MVFR MVFR MVFR MVFR
WX -- -- -- -- -- -- -- -- -- -- -- -- -- --
WDir 240 250 250 250 260 260 260 250 250 250 250 250 250 VRB
WSpd 11 12 12 12 8 8 8 4 4 4 4 4 4 3
WGst -- -- -- -- -- -- -- -- -- -- -- -- -- --
R06/24
XWnd -4 -3 -3 -3 -0 -0 -0 -1 -1 -1 -1 -1 -1 VRB
HWnd -10 -12 -12 -12 -8 -8 -8 -4 -4 -4 -4 -4 -4 VRB
R07/25
XWnd -4 -3 -3 -3 -0 -0 -0 -1 -1 -1 -1 -1 -1 VRB
HWnd -10 -12 -12 -12 -8 -8 -8 -4 -4 -4 -4 -4 -4 VRB

NOTE: TEMPO conditions in [brackets]. Keep in mind TEMPO conditions might be better (lower impact) than prevailing conditions.

Raw TAF
KLAX 312322Z 0100/0206 25012KT P6SM SKC
  FM010300 26008KT P6SM SKC
  FM010530 25004KT P6SM OVC012
  FM011200 VRB03KT P6SM OVC017
  FM011800 25006KT P6SM SCT022
  FM012000 25012KT P6SM FEW022
  FM020400 26008KT P6SM SCT015


Raw METAR
KLAX 312253Z 24011KT 10SM CLR 24/17 A2987 RMK AO2 SLP113 T02390172 $
KLAX 312153Z 25009KT 10SM FEW180 24/17 A2989 RMK AO2 SLP119 T02390172 $
KLAX 312053Z 26010KT 10SM FEW180 25/17 A2990 RMK AO2 SLP121 T02500172 58009 $

METAR Board
Radar Display
Forecast Discussion

TAF Board Legend

Potential Impact
Threat None Slight Moderate High
Visibility (sm) ≥5.1 5.1>X≥3 3>X≥1 <1
Ceiling (100 ft) ≥30.1 30.1>X≥10 10>X≥5 <5
Wind Speed (kt) <10 10≤X<20 20≤X<30 ≥30
Wind Gust (kt) <15 15≤X<25 25≤X<35 ≥35
Weather No Wx Reported VCTS,-TS,-FZRA,SN TS,FZRA +TS,+FZRA,+SN